MSC Orchestra — 3EJF3 — position and weather

sailwx.info

Track history (hours):
 
Tides and Currents Weather Stations Pressure Air Temp Water Temp Dewpoint Dewpoint Depression Visibility Wind Speed Wind Dir Waves Ship Positions

MSC Orchestra

Last reported at 2018-Feb-22 08:29 UTC. Time now 2018-Feb-22 08:54 UTC.
Position N 44°25' E 008°55'.

Length 294 m; draft 7.8 m.

Type: Ship. MMSI: 372497000.

Date/timePositionNaut miles runAvg speedWind from/ knotsBaromVisibWave heightAir tempDewpointWater temp
2018-Feb-22 08:29N 44°25' E 008°55'0 0.0
2018-Feb-22 07:59N 44°25' E 008°55'0 0.0
2018-Feb-22 07:25N 44°25' E 008°55'0 0.0
2018-Feb-22 06:58N 44°25' E 008°55'0 1.1
2018-Feb-22 06:30N 44°24' E 008°55'2 4.7
2018-Feb-22 05:59N 44°22' E 008°57'612.0
2018-Feb-22 05:30N 44°17' E 009°01'714.7
2018-Feb-22 05:00N 44°11' E 009°06'714.9
2018-Feb-22 04:30N 44°04' E 009°12'815.1
2018-Feb-22 04:00N 43°58' E 009°17'815.2
2018-Feb-22 03:30N 43°51' E 009°22'815.3
2018-Feb-22 03:00N 43°45' E 009°27'815.3
2018-Feb-22 02:30N 43°38' E 009°33'816.7
2018-Feb-22 02:00N 43°31' E 009°39'1019.1
2018-Feb-22 01:30N 43°23' E 009°45'918.9
2018-Feb-22 01:00N 43°15' E 009°52'918.2
2018-Feb-22 00:30N 43°07' E 009°58'917.5
2018-Feb-22 00:00N 42°58' E 010°01'2016.8
2018-Feb-21 22:50N 42°39' E 010°09'718.2
2018-Feb-21 22:29N 42°35' E 010°15'1018.2
2018-Feb-21 21:56N 42°29' E 010°26'30910.8
2018-Feb-20 17:15N 38°47' E 015°08'620.3
2018-Feb-20 16:58N 38°43' E 015°14'920.3
2018-Feb-20 16:30N 38°36' E 015°22'1019.9
2018-Feb-20 16:00N 38°28' E 015°30'1020.3
2018-Feb-20 15:30N 38°21' E 015°39'713.7
2018-Feb-20 15:00N 38°14' E 015°37'918.4
2018-Feb-20 14:30N 38°05' E 015°36'917.8
2018-Feb-20 14:00N 37°56' E 015°39'1019.4
2018-Feb-20 13:29N 37°52' E 015°50'37317.4
2018-Feb-19 15:58N 37°39' E 023°42'1020.4
2018-Feb-19 15:30N 37°47' E 023°37'918.1
2018-Feb-19 15:00N 37°56' E 023°37'1 1.9
2018-Feb-19 14:30N 37°56' E 023°38'0 0.0
2018-Feb-19 14:00N 37°56' E 023°38'0 0.0
2018-Feb-19 13:29N 37°56' E 023°38'0 0.0
2018-Feb-19 12:59N 37°56' E 023°38'0 0.0
2018-Feb-19 12:29N 37°56' E 023°38'0 0.0
2018-Feb-19 11:59N 37°56' E 023°38'0 0.0
2018-Feb-19 11:29N 37°56' E 023°38'0 0.0
2018-Feb-19 10:58N 37°56' E 023°38'0 0.0
2018-Feb-19 10:28N 37°56' E 023°38'0 0.0
2018-Feb-19 09:55N 37°56' E 023°38'0 0.0
2018-Feb-19 09:28N 37°56' E 023°38'0 0.0
2018-Feb-19 09:00N 37°56' E 023°38'0 0.0
2018-Feb-19 08:30N 37°56' E 023°38'0 0.0
2018-Feb-19 08:00N 37°56' E 023°38'0 0.0
2018-Feb-19 07:30N 37°56' E 023°38'0 0.0
2018-Feb-19 07:00N 37°56' E 023°38'0 0.0
2018-Feb-19 06:29N 37°56' E 023°38'0 0.0
2018-Feb-19 05:59N 37°56' E 023°38'0 0.0
2018-Feb-19 05:29N 37°56' E 023°38'0 0.3
2018-Feb-19 05:00N 37°56' E 023°38'2 4.1
2018-Feb-19 04:31N 37°55' E 023°37'611.5
2018-Feb-19 04:01N 37°49' E 023°40'612.9
2018-Feb-19 03:30N 37°44' E 023°44'612.8
2018-Feb-19 03:00N 37°38' E 023°47'712.9
2018-Feb-19 02:29N 37°31' E 023°49'  
2018-Feb-16 15:59N 35°59' E 014°46'1020.3
2018-Feb-16 15:28N 35°55' E 014°34'3 0.3
2018-Feb-16 06:12N 35°54' E 014°31'2 8.2
2018-Feb-16 06:00N 35°55' E 014°33'611.7
2018-Feb-16 05:30N 35°59' E 014°38'12611.3
2018-Feb-15 18:20N 37°56' E 015°35'512.4
2018-Feb-15 17:55N 38°01' E 015°35'512.5
2018-Feb-15 17:30N 38°07' E 015°35'611.0
2018-Feb-15 16:59N 38°12' E 015°34'1 1.2
2018-Feb-15 16:25N 38°12' E 015°33'0 0.0
2018-Feb-15 15:55N 38°12' E 015°33'0 0.0
2018-Feb-15 15:30N 38°12' E 015°33'0 0.0
2018-Feb-15 15:00N 38°12' E 015°33'0 0.0
2018-Feb-15 14:30N 38°12' E 015°33'0 0.0
2018-Feb-15 14:00N 38°12' E 015°33'0 0.0
2018-Feb-15 13:30N 38°12' E 015°33'0 0.0
2018-Feb-15 12:59N 38°12' E 015°33'0 0.0
2018-Feb-15 12:23N 38°12' E 015°33'0 0.0
2018-Feb-15 11:59N 38°12' E 015°33'0 0.0
2018-Feb-15 11:29N 38°12' E 015°33'0 0.0
2018-Feb-15 10:58N 38°12' E 015°33'0 0.0
2018-Feb-15 10:28N 38°12' E 015°33'0 0.0
2018-Feb-15 09:52N 38°12' E 015°33'0 0.0
2018-Feb-15 09:28N 38°12' E 015°33'0 0.0
2018-Feb-15 08:58N 38°12' E 015°33'0 0.0
2018-Feb-15 08:27N 38°12' E 015°33'0 0.0
2018-Feb-15 07:57N 38°12' E 015°33'0 0.0
2018-Feb-15 07:27N 38°12' E 015°33'0 0.0
2018-Feb-15 06:57N 38°12' E 015°33'0 0.0
2018-Feb-15 06:30N 38°12' E 015°33'1 2.7
2018-Feb-15 06:00N 38°13' E 015°34'713.1
2018-Feb-15 05:29N 38°17' E 015°41'510.3
2018-Feb-15 05:00N 38°21' E 015°36'713.9
2018-Feb-15 04:29N 38°20' E 015°27'613.0
2018-Feb-15 04:00N 38°19' E 015°19'713.2
2018-Feb-15 03:30N 38°19' E 015°11'713.5
2018-Feb-15 03:00N 38°18' E 015°03'714.5
2018-Feb-15 02:30N 38°18' E 014°53'714.6
2018-Feb-15 01:59N 38°18' E 014°44'714.3
2018-Feb-15 01:30N 38°19' E 014°35'4616.7
2018-Feb-14 22:46N 38°22' E 013°37'516.9
2018-Feb-14 22:27N 38°22' E 013°30'818.1
2018-Feb-14 22:00N 38°23' E 013°20'1019.6
2018-Feb-14 21:30N 38°23' E 013°07'1019.1
2018-Feb-14 20:59N 38°24' E 012°54'51319.2
2018-Feb-13 18:12N 41°11' E 002°23'420.2
2018-Feb-13 18:00N 41°13' E 002°18'917.1
2018-Feb-13 17:30N 41°19' E 002°10'3 5.6
2018-Feb-13 17:00N 41°22' E 002°11'0 0.0
2018-Feb-13 16:30N 41°22' E 002°11'0 0.0
2018-Feb-13 15:59N 41°22' E 002°11'0 0.0
2018-Feb-13 15:29N 41°22' E 002°11'0 0.0
2018-Feb-13 14:59N 41°22' E 002°11'0 0.0
2018-Feb-13 14:29N 41°22' E 002°11'0 0.0
2018-Feb-13 13:59N 41°22' E 002°11'0 0.0
2018-Feb-13 13:28N 41°22' E 002°11'0 0.0
2018-Feb-13 12:58N 41°22' E 002°11'0 0.0
2018-Feb-13 12:28N 41°22' E 002°11'0 0.0
2018-Feb-13 11:58N 41°22' E 002°11'0 0.0
2018-Feb-13 11:28N 41°22' E 002°11'0 0.0
2018-Feb-13 10:57N 41°22' E 002°11'0 0.0
2018-Feb-13 10:24N 41°22' E 002°11'0 0.0
2018-Feb-13 10:00N 41°22' E 002°11'0 0.0
2018-Feb-13 09:30N 41°22' E 002°11'0 0.0
2018-Feb-13 08:56N 41°22' E 002°11'0 0.0
2018-Feb-13 08:26N 41°22' E 002°11'0 0.0
2018-Feb-13 08:00N 41°22' E 002°11'0 0.2
2018-Feb-13 07:30N 41°22' E 002°11'4 8.1
2018-Feb-13 07:00N 41°18' E 002°11'714.4
2018-Feb-13 06:29N 41°20' E 002°20'1120.2
2018-Feb-13 05:58N 41°26' E 002°32'13417.6
2018-Feb-12 22:22N 43°08' E 004°29'719.3
2018-Feb-12 22:00N 43°09' E 004°38'1019.5
2018-Feb-12 21:30N 43°10' E 004°52'919.0
2018-Feb-12 21:00N 43°12' E 005°04'1020.3
2018-Feb-12 20:30N 43°19' E 005°15'4 3.8
2018-Feb-12 19:26N 43°21' E 005°20'0 0.0
2018-Feb-12 14:00N 43°21' E 005°20'0 0.0
2018-Feb-12 13:21N 43°21' E 005°20'0 0.0
2018-Feb-12 13:00N 43°21' E 005°20'0 0.0
2018-Feb-12 12:14N 43°21' E 005°20'0 0.0
2018-Feb-12 11:59N 43°21' E 005°20'0 0.0
2018-Feb-12 11:26N 43°21' E 005°20'0 0.0
2018-Feb-12 10:50N 43°21' E 005°20'0 0.0
2018-Feb-12 09:37N 43°21' E 005°20'0 0.0
2018-Feb-12 09:25N 43°21' E 005°20'  
Track history (hours):
 
Tides and Currents Weather Stations Pressure Air Temp Water Temp Dewpoint Dewpoint Depression Visibility Wind Speed Wind Dir Waves Ship Positions

MSC Orchestra

Last reported at 2018-Feb-22 08:29 UTC. Time now 2018-Feb-22 08:54 UTC.
Position N 44°25' E 008°55'.

Length 294 m; draft 7.8 m.

Type: Ship. MMSI: 372497000.

Date/timePositionNaut miles runAvg speedWind from/ knotsBaromVisibWave heightAir tempDewpointWater temp
2018-Feb-22 08:29N 44°25' E 008°55'0 0.0
2018-Feb-22 07:59N 44°25' E 008°55'0 0.0
2018-Feb-22 07:25N 44°25' E 008°55'0 0.0
2018-Feb-22 06:58N 44°25' E 008°55'0 1.1
2018-Feb-22 06:30N 44°24' E 008°55'2 4.7
2018-Feb-22 05:59N 44°22' E 008°57'612.0
2018-Feb-22 05:30N 44°17' E 009°01'714.7
2018-Feb-22 05:00N 44°11' E 009°06'714.9
2018-Feb-22 04:30N 44°04' E 009°12'815.1
2018-Feb-22 04:00N 43°58' E 009°17'815.2
2018-Feb-22 03:30N 43°51' E 009°22'815.3
2018-Feb-22 03:00N 43°45' E 009°27'815.3
2018-Feb-22 02:30N 43°38' E 009°33'816.7
2018-Feb-22 02:00N 43°31' E 009°39'1019.1
2018-Feb-22 01:30N 43°23' E 009°45'918.9
2018-Feb-22 01:00N 43°15' E 009°52'918.2
2018-Feb-22 00:30N 43°07' E 009°58'917.5
2018-Feb-22 00:00N 42°58' E 010°01'2016.8
2018-Feb-21 22:50N 42°39' E 010°09'718.2
2018-Feb-21 22:29N 42°35' E 010°15'1018.2
2018-Feb-21 21:56N 42°29' E 010°26'30910.8
2018-Feb-20 17:15N 38°47' E 015°08'620.3
2018-Feb-20 16:58N 38°43' E 015°14'920.3
2018-Feb-20 16:30N 38°36' E 015°22'1019.9
2018-Feb-20 16:00N 38°28' E 015°30'1020.3
2018-Feb-20 15:30N 38°21' E 015°39'713.7
2018-Feb-20 15:00N 38°14' E 015°37'918.4
2018-Feb-20 14:30N 38°05' E 015°36'917.8
2018-Feb-20 14:00N 37°56' E 015°39'1019.4
2018-Feb-20 13:29N 37°52' E 015°50'37317.4
2018-Feb-19 15:58N 37°39' E 023°42'1020.4
2018-Feb-19 15:30N 37°47' E 023°37'918.1
2018-Feb-19 15:00N 37°56' E 023°37'1 1.9
2018-Feb-19 14:30N 37°56' E 023°38'0 0.0
2018-Feb-19 14:00N 37°56' E 023°38'0 0.0
2018-Feb-19 13:29N 37°56' E 023°38'0 0.0
2018-Feb-19 12:59N 37°56' E 023°38'0 0.0
2018-Feb-19 12:29N 37°56' E 023°38'0 0.0
2018-Feb-19 11:59N 37°56' E 023°38'0 0.0
2018-Feb-19 11:29N 37°56' E 023°38'0 0.0
2018-Feb-19 10:58N 37°56' E 023°38'0 0.0
2018-Feb-19 10:28N 37°56' E 023°38'0 0.0
2018-Feb-19 09:55N 37°56' E 023°38'0 0.0
2018-Feb-19 09:28N 37°56' E 023°38'0 0.0
2018-Feb-19 09:00N 37°56' E 023°38'0 0.0
2018-Feb-19 08:30N 37°56' E 023°38'0 0.0
2018-Feb-19 08:00N 37°56' E 023°38'0 0.0
2018-Feb-19 07:30N 37°56' E 023°38'0 0.0
2018-Feb-19 07:00N 37°56' E 023°38'0 0.0
2018-Feb-19 06:29N 37°56' E 023°38'0 0.0
2018-Feb-19 05:59N 37°56' E 023°38'0 0.0
2018-Feb-19 05:29N 37°56' E 023°38'0 0.3
2018-Feb-19 05:00N 37°56' E 023°38'2 4.1
2018-Feb-19 04:31N 37°55' E 023°37'611.5
2018-Feb-19 04:01N 37°49' E 023°40'612.9
2018-Feb-19 03:30N 37°44' E 023°44'612.8
2018-Feb-19 03:00N 37°38' E 023°47'712.9
2018-Feb-19 02:29N 37°31' E 023°49'  
2018-Feb-16 15:59N 35°59' E 014°46'1020.3
2018-Feb-16 15:28N 35°55' E 014°34'3 0.3
2018-Feb-16 06:12N 35°54' E 014°31'2 8.2
2018-Feb-16 06:00N 35°55' E 014°33'611.7
2018-Feb-16 05:30N 35°59' E 014°38'12611.3
2018-Feb-15 18:20N 37°56' E 015°35'512.4
2018-Feb-15 17:55N 38°01' E 015°35'512.5
2018-Feb-15 17:30N 38°07' E 015°35'611.0
2018-Feb-15 16:59N 38°12' E 015°34'1 1.2
2018-Feb-15 16:25N 38°12' E 015°33'0 0.0
2018-Feb-15 15:55N 38°12' E 015°33'0 0.0
2018-Feb-15 15:30N 38°12' E 015°33'0 0.0
2018-Feb-15 15:00N 38°12' E 015°33'0 0.0
2018-Feb-15 14:30N 38°12' E 015°33'0 0.0
2018-Feb-15 14:00N 38°12' E 015°33'0 0.0
2018-Feb-15 13:30N 38°12' E 015°33'0 0.0
2018-Feb-15 12:59N 38°12' E 015°33'0 0.0
2018-Feb-15 12:23N 38°12' E 015°33'0 0.0
2018-Feb-15 11:59N 38°12' E 015°33'0 0.0
2018-Feb-15 11:29N 38°12' E 015°33'0 0.0
2018-Feb-15 10:58N 38°12' E 015°33'0 0.0
2018-Feb-15 10:28N 38°12' E 015°33'0 0.0
2018-Feb-15 09:52N 38°12' E 015°33'0 0.0
2018-Feb-15 09:28N 38°12' E 015°33'0 0.0
2018-Feb-15 08:58N 38°12' E 015°33'0 0.0
2018-Feb-15 08:27N 38°12' E 015°33'0 0.0
2018-Feb-15 07:57N 38°12' E 015°33'0 0.0
2018-Feb-15 07:27N 38°12' E 015°33'0 0.0
2018-Feb-15 06:57N 38°12' E 015°33'0 0.0
2018-Feb-15 06:30N 38°12' E 015°33'1 2.7
2018-Feb-15 06:00N 38°13' E 015°34'713.1
2018-Feb-15 05:29N 38°17' E 015°41'510.3
2018-Feb-15 05:00N 38°21' E 015°36'713.9
2018-Feb-15 04:29N 38°20' E 015°27'613.0
2018-Feb-15 04:00N 38°19' E 015°19'713.2
2018-Feb-15 03:30N 38°19' E 015°11'713.5
2018-Feb-15 03:00N 38°18' E 015°03'714.5
2018-Feb-15 02:30N 38°18' E 014°53'714.6
2018-Feb-15 01:59N 38°18' E 014°44'714.3
2018-Feb-15 01:30N 38°19' E 014°35'4616.7
2018-Feb-14 22:46N 38°22' E 013°37'516.9
2018-Feb-14 22:27N 38°22' E 013°30'818.1
2018-Feb-14 22:00N 38°23' E 013°20'1019.6
2018-Feb-14 21:30N 38°23' E 013°07'1019.1
2018-Feb-14 20:59N 38°24' E 012°54'51319.2
2018-Feb-13 18:12N 41°11' E 002°23'420.2
2018-Feb-13 18:00N 41°13' E 002°18'917.1
2018-Feb-13 17:30N 41°19' E 002°10'3 5.6
2018-Feb-13 17:00N 41°22' E 002°11'0 0.0
2018-Feb-13 16:30N 41°22' E 002°11'0 0.0
2018-Feb-13 15:59N 41°22' E 002°11'0 0.0
2018-Feb-13 15:29N 41°22' E 002°11'0 0.0
2018-Feb-13 14:59N 41°22' E 002°11'0 0.0
2018-Feb-13 14:29N 41°22' E 002°11'0 0.0
2018-Feb-13 13:59N 41°22' E 002°11'0 0.0
2018-Feb-13 13:28N 41°22' E 002°11'0 0.0
2018-Feb-13 12:58N 41°22' E 002°11'0 0.0
2018-Feb-13 12:28N 41°22' E 002°11'0 0.0
2018-Feb-13 11:58N 41°22' E 002°11'0 0.0
2018-Feb-13 11:28N 41°22' E 002°11'0 0.0
2018-Feb-13 10:57N 41°22' E 002°11'0 0.0
2018-Feb-13 10:24N 41°22' E 002°11'0 0.0
2018-Feb-13 10:00N 41°22' E 002°11'0 0.0
2018-Feb-13 09:30N 41°22' E 002°11'0 0.0
2018-Feb-13 08:56N 41°22' E 002°11'0 0.0
2018-Feb-13 08:26N 41°22' E 002°11'0 0.0
2018-Feb-13 08:00N 41°22' E 002°11'0 0.2
2018-Feb-13 07:30N 41°22' E 002°11'4 8.1
2018-Feb-13 07:00N 41°18' E 002°11'714.4
2018-Feb-13 06:29N 41°20' E 002°20'1120.2
2018-Feb-13 05:58N 41°26' E 002°32'13417.6
2018-Feb-12 22:22N 43°08' E 004°29'719.3
2018-Feb-12 22:00N 43°09' E 004°38'1019.5
2018-Feb-12 21:30N 43°10' E 004°52'919.0
2018-Feb-12 21:00N 43°12' E 005°04'1020.3
2018-Feb-12 20:30N 43°19' E 005°15'4 3.8
2018-Feb-12 19:26N 43°21' E 005°20'0 0.0
2018-Feb-12 14:00N 43°21' E 005°20'0 0.0
2018-Feb-12 13:21N 43°21' E 005°20'0 0.0
2018-Feb-12 13:00N 43°21' E 005°20'0 0.0
2018-Feb-12 12:14N 43°21' E 005°20'0 0.0
2018-Feb-12 11:59N 43°21' E 005°20'0 0.0
2018-Feb-12 11:26N 43°21' E 005°20'0 0.0
2018-Feb-12 10:50N 43°21' E 005°20'0 0.0
2018-Feb-12 09:37N 43°21' E 005°20'0 0.0
2018-Feb-12 09:25N 43°21' E 005°20'  

Dump ship's entire track history